createdAt,value
2019-03-08T00:00:56.109Z,998.13
2019-03-08T00:01:56.086Z,997.99
2019-03-08T00:02:56.062Z,998.05
2019-03-08T00:03:56.040Z,998.07
2019-03-08T00:04:56.023Z,998.01
2019-03-08T00:05:55.999Z,998.11
2019-03-08T00:06:55.979Z,998.03
2019-03-08T00:07:55.956Z,998.13
2019-03-08T00:08:55.936Z,998.17
2019-03-08T00:09:55.910Z,998.14
2019-03-08T00:10:55.894Z,998.13
2019-03-08T00:11:55.868Z,998.22
2019-03-08T00:12:55.846Z,998.16
2019-03-08T00:13:55.824Z,998.18
2019-03-08T00:14:55.807Z,998.3
2019-03-08T00:15:55.787Z,998.27
2019-03-08T00:16:55.760Z,998.16
2019-03-08T00:17:55.738Z,998.25
2019-03-08T00:18:55.721Z,998.23
2019-03-08T00:19:55.698Z,998.3
2019-03-08T00:20:55.674Z,998.36
2019-03-08T00:21:55.651Z,998.28
2019-03-08T00:22:55.631Z,998.28
2019-03-08T00:23:55.613Z,998.36
2019-03-08T00:24:55.587Z,998.31
2019-03-08T00:25:55.570Z,998.4
2019-03-08T00:26:55.558Z,998.43
2019-03-08T00:27:55.527Z,998.4
2019-03-08T00:28:55.505Z,998.38
2019-03-08T00:29:55.484Z,998.39
2019-03-08T00:30:55.457Z,998.47
2019-03-08T00:31:55.437Z,998.5
2019-03-08T00:32:55.419Z,998.45
2019-03-08T00:33:55.398Z,998.51
2019-03-08T00:34:55.371Z,998.58
2019-03-08T00:35:55.350Z,998.63
2019-03-08T00:36:55.333Z,998.63
2019-03-08T00:37:55.312Z,998.6
2019-03-08T00:38:55.289Z,998.6
2019-03-08T00:39:55.264Z,998.64
2019-03-08T00:40:55.247Z,998.62
2019-03-08T00:41:55.220Z,998.68
2019-03-08T00:42:55.203Z,998.67
2019-03-08T00:43:55.177Z,998.69
2019-03-08T00:44:55.157Z,998.79
2019-03-08T00:45:55.135Z,998.76
2019-03-08T00:46:55.118Z,998.76
2019-03-08T00:47:55.095Z,998.7
2019-03-08T00:48:55.071Z,998.8
2019-03-08T00:49:55.047Z,998.76
2019-03-08T00:50:55.031Z,998.74
2019-03-08T00:51:55.010Z,998.89
2019-03-08T00:52:54.983Z,998.72
2019-03-08T00:53:54.962Z,998.75
2019-03-08T00:54:54.941Z,998.78
2019-03-08T00:55:54.923Z,998.9
2019-03-08T00:56:54.897Z,998.94
2019-03-08T00:57:54.879Z,998.9
2019-03-08T00:58:54.854Z,998.88
2019-03-08T00:59:54.838Z,998.87
2019-03-08T01:00:54.816Z,998.88
2019-03-08T01:01:54.797Z,998.96
2019-03-08T01:02:54.770Z,998.97
2019-03-08T01:03:54.746Z,998.98
2019-03-08T01:04:54.729Z,998.97
2019-03-08T01:05:54.708Z,999.01
2019-03-08T01:06:54.683Z,999.08
2019-03-08T01:07:54.662Z,999.12
2019-03-08T01:08:54.643Z,999.08
2019-03-08T01:09:54.622Z,999.06
2019-03-08T01:10:54.604Z,999.15
2019-03-08T01:11:54.574Z,999.15
2019-03-08T01:12:54.564Z,999.23
2019-03-08T01:13:54.530Z,999.11
2019-03-08T01:14:54.514Z,999.16
2019-03-08T01:15:54.487Z,999.19
2019-03-08T01:16:54.467Z,999.17
2019-03-08T01:17:54.447Z,999.3
2019-03-08T01:18:54.429Z,999.24
2019-03-08T01:19:54.406Z,999.34
2019-03-08T01:20:54.379Z,999.39
2019-03-08T01:21:54.358Z,999.27
2019-03-08T01:22:54.341Z,999.28
2019-03-08T01:23:54.322Z,999.39
2019-03-08T01:24:54.295Z,999.36
2019-03-08T01:25:54.272Z,999.4
2019-03-08T01:26:54.250Z,999.38
2019-03-08T01:27:54.233Z,999.37
2019-03-08T01:28:54.311Z,999.4
2019-03-08T01:29:54.190Z,999.47
2019-03-08T01:30:54.164Z,999.45
2019-03-08T01:31:54.146Z,999.51
2019-03-08T01:32:54.125Z,999.48
2019-03-08T01:33:54.105Z,999.41
2019-03-08T01:34:54.077Z,999.46
2019-03-08T01:35:54.058Z,999.49
2019-03-08T01:36:54.038Z,999.5
2019-03-08T01:37:54.011Z,999.5
2019-03-08T01:38:53.995Z,999.56
2019-03-08T01:39:53.974Z,999.63
2019-03-08T01:40:53.949Z,999.53
2019-03-08T01:41:53.928Z,999.53
2019-03-08T01:42:53.905Z,999.59
2019-03-08T01:43:53.887Z,999.5
2019-03-08T01:44:53.861Z,999.58
2019-03-08T01:45:53.844Z,999.5
2019-03-08T01:46:53.819Z,999.55
2019-03-08T01:47:53.800Z,999.66
2019-03-08T01:48:53.780Z,999.61
2019-03-08T01:49:53.758Z,999.59
2019-03-08T01:50:53.732Z,999.58
2019-03-08T01:51:53.710Z,999.69
2019-03-08T01:52:53.692Z,999.62
2019-03-08T01:53:53.671Z,999.72
2019-03-08T01:54:53.643Z,999.51
2019-03-08T01:55:53.623Z,999.75
2019-03-08T01:56:53.606Z,999.75
2019-03-08T01:57:53.584Z,999.69
2019-03-08T01:58:53.573Z,999.75
2019-03-08T01:59:53.537Z,999.77
2019-03-08T02:00:53.520Z,999.7
2019-03-08T02:01:53.495Z,999.76
2019-03-08T02:02:53.476Z,999.82
2019-03-08T02:03:53.452Z,999.81
2019-03-08T02:04:53.429Z,999.75
2019-03-08T02:05:53.412Z,999.74
2019-03-08T02:06:53.390Z,999.85
2019-03-08T02:07:53.368Z,999.77
2019-03-08T02:08:53.342Z,999.8
2019-03-08T02:09:53.328Z,999.77
2019-03-08T02:10:53.303Z,999.87
2019-03-08T02:11:53.282Z,999.88
2019-03-08T02:12:53.257Z,999.86
2019-03-08T02:13:53.234Z,999.92
2019-03-08T02:14:53.213Z,999.88
2019-03-08T02:15:53.194Z,999.93
2019-03-08T02:16:53.168Z,999.91
2019-03-08T02:17:53.152Z,999.96
2019-03-08T02:18:53.125Z,999.9
2019-03-08T02:19:53.109Z,999.91
2019-03-08T02:20:53.087Z,999.85
2019-03-08T02:21:53.065Z,999.88
2019-03-08T02:22:53.042Z,999.94
2019-03-08T02:23:53.018Z,999.88
2019-03-08T02:24:53.000Z,999.9
2019-03-08T02:25:52.979Z,999.94
2019-03-08T02:26:52.953Z,1000.01
2019-03-08T02:27:52.931Z,999.9
2019-03-08T02:28:52.914Z,999.97
2019-03-08T02:29:52.892Z,999.99
2019-03-08T02:30:52.871Z,999.98
2019-03-08T02:31:52.845Z,999.93
2019-03-08T02:32:52.827Z,999.98
2019-03-08T02:33:52.801Z,999.99
2019-03-08T02:34:52.784Z,999.95
2019-03-08T02:35:52.757Z,1000.06
2019-03-08T02:36:52.737Z,1000.04
2019-03-08T02:37:52.716Z,1000.1
2019-03-08T02:38:52.698Z,1000.01
2019-03-08T02:39:52.678Z,1000.05
2019-03-08T02:40:52.652Z,1000.08
2019-03-08T02:41:52.631Z,1000.07
2019-03-08T02:42:52.610Z,1000.01
2019-03-08T02:43:52.590Z,1000.07
2019-03-08T02:44:52.565Z,1000.1
2019-03-08T02:45:52.541Z,1000.11
2019-03-08T02:46:52.521Z,1000.1
2019-03-08T02:47:52.531Z,1000.04
2019-03-08T02:48:52.478Z,1000.12
2019-03-08T02:49:52.459Z,1000.1
2019-03-08T02:50:52.434Z,1000.09
2019-03-08T02:51:52.417Z,1000.12
2019-03-08T02:52:52.395Z,1000.14
2019-03-08T02:53:52.373Z,1000.14
2019-03-08T02:54:52.348Z,1000.29
2019-03-08T02:55:52.327Z,1000.23
2019-03-08T02:56:52.308Z,1000.26
2019-03-08T02:57:52.289Z,1000.24
2019-03-08T02:58:52.261Z,1000.3
2019-03-08T02:59:52.240Z,1000.31
2019-03-08T03:00:52.222Z,1000.43
2019-03-08T03:01:52.200Z,1000.36
2019-03-08T03:02:52.179Z,1000.36
2019-03-08T03:03:52.153Z,1000.39
2019-03-08T03:04:52.135Z,1000.38
2019-03-08T03:05:52.110Z,1000.44
2019-03-08T03:06:52.092Z,1000.5
2019-03-08T03:07:52.066Z,1000.48
2019-03-08T03:08:52.044Z,1000.63
2019-03-08T03:09:52.023Z,1000.62
2019-03-08T03:10:52.006Z,1000.7
2019-03-08T03:11:51.985Z,1000.71
2019-03-08T03:12:51.958Z,1000.8
2019-03-08T03:13:51.937Z,1000.93
2019-03-08T03:14:51.920Z,1000.87
2019-03-08T03:15:51.897Z,1001
2019-03-08T03:16:51.872Z,1001.04
2019-03-08T03:17:51.850Z,1001.01
2019-03-08T03:18:51.827Z,1001.09
2019-03-08T03:19:51.807Z,1001.06
2019-03-08T03:20:51.789Z,1001.02
2019-03-08T03:21:51.762Z,1001.08
2019-03-08T03:22:51.747Z,1001.08
2019-03-08T03:23:51.721Z,1001.13
2019-03-08T03:24:51.700Z,1001.11
2019-03-08T03:25:51.679Z,1001.17
2019-03-08T03:26:51.662Z,1001.2
2019-03-08T03:27:51.637Z,1001.23
2019-03-08T03:28:51.613Z,1001.26
2019-03-08T03:29:51.590Z,1001.26
2019-03-08T03:30:51.574Z,1001.26
2019-03-08T03:31:51.552Z,1001.23
2019-03-08T03:32:51.531Z,1001.28
2019-03-08T03:33:51.502Z,1001.3
2019-03-08T03:34:51.483Z,1001.38
2019-03-08T03:35:51.464Z,1001.35
2019-03-08T03:36:51.439Z,1001.34
2019-03-08T03:37:51.421Z,1001.38
2019-03-08T03:38:51.396Z,1001.37
2019-03-08T03:39:51.378Z,1001.4
2019-03-08T03:40:51.356Z,1001.45
2019-03-08T03:41:51.334Z,1001.49
2019-03-08T03:42:51.308Z,1001.52
2019-03-08T03:43:51.285Z,1001.46
2019-03-08T03:44:51.269Z,1001.56
2019-03-08T03:45:51.248Z,1001.57
2019-03-08T03:46:51.222Z,1001.52
2019-03-08T03:47:51.200Z,1001.56
2019-03-08T03:48:51.182Z,1001.58
2019-03-08T03:49:51.163Z,1001.58
2019-03-08T03:50:51.139Z,1001.61
2019-03-08T03:51:51.113Z,1001.59
2019-03-08T03:52:51.096Z,1001.61
2019-03-08T03:53:51.073Z,1001.63
2019-03-08T03:54:51.053Z,1001.62
2019-03-08T03:55:51.027Z,1001.64
2019-03-08T03:56:51.005Z,1001.7
2019-03-08T03:57:50.987Z,1001.65
2019-03-08T03:58:50.966Z,1001.74
2019-03-08T03:59:50.946Z,1001.73
2019-03-08T04:00:50.919Z,1001.75
2019-03-08T04:01:50.897Z,1001.8
2019-03-08T04:02:50.879Z,1001.81
2019-03-08T04:03:50.858Z,1001.8
2019-03-08T04:04:50.832Z,1001.85
2019-03-08T04:05:50.811Z,1001.85
2019-03-08T04:06:50.790Z,1001.84
2019-03-08T04:07:50.775Z,1001.88
2019-03-08T04:08:50.746Z,1001.93
2019-03-08T04:09:50.729Z,1001.93
2019-03-08T04:10:50.703Z,1001.97
2019-03-08T04:11:50.686Z,1001.93
2019-03-08T04:12:50.664Z,1001.99
2019-03-08T04:13:50.642Z,1001.96
2019-03-08T04:14:50.616Z,1001.98
2019-03-08T04:15:50.594Z,1002.01
2019-03-08T04:16:50.580Z,1002.01
2019-03-08T04:17:50.568Z,1002.01
2019-03-08T04:18:50.529Z,1001.98
2019-03-08T04:19:50.508Z,1002
2019-03-08T04:20:50.490Z,1002.04
2019-03-08T04:21:50.469Z,1002.07
2019-03-08T04:22:50.447Z,1002.15
2019-03-08T04:23:50.421Z,1002.13
2019-03-08T04:24:50.404Z,1002.15
2019-03-08T04:25:50.378Z,1002.16
2019-03-08T04:26:50.361Z,1002.23
2019-03-08T04:27:50.335Z,1002.21
2019-03-08T04:28:50.311Z,1002.24
2019-03-08T04:29:50.292Z,1002.25
2019-03-08T04:30:50.274Z,1002.3
2019-03-08T04:31:50.252Z,1002.29
2019-03-08T04:32:50.226Z,1002.29
2019-03-08T04:33:50.205Z,1002.35
2019-03-08T04:34:50.187Z,1002.33
2019-03-08T04:35:50.173Z,1002.33
2019-03-08T04:36:50.142Z,1002.34
2019-03-08T04:37:50.118Z,1002.39
2019-03-08T04:38:50.097Z,1002.41
2019-03-08T04:39:50.080Z,1002.41
2019-03-08T04:40:50.060Z,1002.41
2019-03-08T04:41:50.036Z,1002.44
2019-03-08T04:42:50.011Z,1002.48
2019-03-08T04:43:49.994Z,1002.5
2019-03-08T04:44:49.970Z,1002.48
2019-03-08T04:45:49.949Z,1002.55
2019-03-08T04:46:49.925Z,1002.49
2019-03-08T04:47:49.907Z,1002.55
2019-03-08T04:48:49.884Z,1002.6
2019-03-08T04:49:49.862Z,1002.58
2019-03-08T04:50:49.834Z,1002.61
2019-03-08T04:51:49.814Z,1002.58
2019-03-08T04:52:49.796Z,1002.62
2019-03-08T04:53:49.774Z,1002.63
2019-03-08T04:54:49.753Z,1002.64
2019-03-08T04:55:49.727Z,1002.67
2019-03-08T04:56:49.711Z,1002.7
2019-03-08T04:57:49.684Z,1002.72
2019-03-08T04:58:49.666Z,1002.71
2019-03-08T04:59:49.639Z,1002.68
2019-03-08T05:00:49.620Z,1002.66
2019-03-08T05:01:49.596Z,1002.72
2019-03-08T05:02:49.576Z,1002.71
2019-03-08T05:03:49.554Z,1002.7
2019-03-08T05:04:49.538Z,1002.65
2019-03-08T05:05:49.515Z,1002.66
2019-03-08T05:06:49.488Z,1002.71
2019-03-08T05:07:49.562Z,1002.7
2019-03-08T05:08:49.580Z,1002.73
2019-03-08T05:09:49.429Z,1002.75
2019-03-08T05:10:49.407Z,1002.78
2019-03-08T05:11:49.380Z,1002.77
2019-03-08T05:12:49.362Z,1002.8
2019-03-08T05:13:49.336Z,1002.88
2019-03-08T05:14:49.319Z,1002.93
2019-03-08T05:15:49.293Z,1002.9
2019-03-08T05:16:49.276Z,1002.91
2019-03-08T05:17:49.252Z,1002.91
2019-03-08T05:18:49.238Z,1002.9
2019-03-08T05:19:49.210Z,1002.95
2019-03-08T05:20:49.184Z,1002.95
2019-03-08T05:21:49.163Z,1002.97
2019-03-08T05:22:49.145Z,1003.02
2019-03-08T05:23:49.124Z,1003
2019-03-08T05:24:49.101Z,1003.05
2019-03-08T05:25:49.077Z,1003.12
2019-03-08T05:26:49.055Z,1003.1
2019-03-08T05:27:49.037Z,1003.22
2019-03-08T05:28:49.012Z,1003.16
2019-03-08T05:29:48.994Z,1003.2
2019-03-08T05:30:48.968Z,1003.17
2019-03-08T05:31:48.952Z,1003.26
2019-03-08T05:32:48.930Z,1003.3
2019-03-08T05:33:48.909Z,1003.27
2019-03-08T05:34:48.881Z,1003.3
2019-03-08T05:35:48.858Z,1003.36
2019-03-08T05:36:48.842Z,1003.37
2019-03-08T05:37:48.820Z,1003.35
2019-03-08T05:38:48.795Z,1003.41
2019-03-08T05:39:48.773Z,1003.44
2019-03-08T05:40:48.757Z,1003.42
2019-03-08T05:41:48.733Z,1003.48
2019-03-08T05:42:48.767Z,1003.52
2019-03-08T05:43:48.687Z,1003.53
2019-03-08T05:44:48.669Z,1003.56
2019-03-08T05:45:48.643Z,1003.58
2019-03-08T05:46:48.627Z,1003.58
2019-03-08T05:47:48.603Z,1003.61
2019-03-08T05:48:48.579Z,1003.62
2019-03-08T05:49:48.558Z,1003.68
2019-03-08T05:50:48.540Z,1003.7
2019-03-08T05:51:48.519Z,1003.75
2019-03-08T05:52:48.650Z,1003.77
2019-03-08T05:53:48.491Z,1003.74
2019-03-08T05:54:48.453Z,1003.82
2019-03-08T05:55:48.432Z,1003.79
2019-03-08T05:56:48.405Z,1003.8
2019-03-08T05:57:48.384Z,1003.86
2019-03-08T05:58:48.362Z,1003.87
2019-03-08T05:59:48.353Z,1003.86
2019-03-08T06:00:48.320Z,1003.94
2019-03-08T06:01:48.301Z,1003.93
2019-03-08T06:02:48.277Z,1003.98
2019-03-08T06:03:48.262Z,1003.98
2019-03-08T06:04:48.243Z,1004.03
2019-03-08T06:05:48.276Z,1004.05
2019-03-08T06:06:48.389Z,1004.04
2019-03-08T06:07:48.281Z,1004.09
2019-03-08T06:08:48.282Z,1004.29
2019-03-08T06:09:48.216Z,1004.17
2019-03-08T06:10:48.189Z,1004.18
2019-03-08T06:11:48.169Z,1004.25
2019-03-08T06:12:48.191Z,1004.26
2019-03-08T06:13:48.111Z,1004.34
2019-03-08T06:14:48.088Z,1004.4
2019-03-08T06:15:48.064Z,1004.42
2019-03-08T06:16:47.999Z,1004.47
2019-03-08T06:17:48.039Z,1004.51
2019-03-08T06:18:47.991Z,1004.58
2019-03-08T06:19:47.976Z,1004.62
2019-03-08T06:20:47.958Z,1004.66
2019-03-08T06:21:47.928Z,1004.73
2019-03-08T06:22:47.912Z,1004.7
2019-03-08T06:23:47.908Z,1004.72
2019-03-08T06:24:47.855Z,1004.76
2019-03-08T06:25:47.838Z,1004.76
2019-03-08T06:26:47.832Z,1004.75
2019-03-08T06:27:47.797Z,1004.78
2019-03-08T06:28:47.778Z,1004.8
2019-03-08T06:29:47.755Z,1004.87
2019-03-08T06:30:47.770Z,1004.9
2019-03-08T06:31:47.715Z,1004.91
2019-03-08T06:32:47.766Z,1004.93
2019-03-08T06:33:47.661Z,1004.98
2019-03-08T06:34:47.630Z,1005.04
2019-03-08T06:35:47.623Z,1005
2019-03-08T06:36:47.603Z,1005.04
2019-03-08T06:37:47.576Z,1005.08
2019-03-08T06:38:47.565Z,1005.12
2019-03-08T06:39:47.565Z,1005.1
2019-03-08T06:40:47.516Z,1005.14
2019-03-08T06:41:47.438Z,1005.15
2019-03-08T06:42:47.412Z,1005.21
2019-03-08T06:43:47.388Z,1005.23
2019-03-08T06:44:47.372Z,1005.24
2019-03-08T06:45:47.351Z,1005.27
2019-03-08T06:46:47.331Z,1005.28
2019-03-08T06:47:47.302Z,1005.34
2019-03-08T06:48:47.285Z,1005.33
2019-03-08T06:49:47.261Z,1005.38
2019-03-08T06:50:47.242Z,1005.37
2019-03-08T06:51:47.216Z,1005.42
2019-03-08T06:52:47.194Z,1005.41
2019-03-08T06:53:47.174Z,1005.47
2019-03-08T06:54:47.156Z,1005.53
2019-03-08T06:55:47.134Z,1005.55
2019-03-08T06:56:47.108Z,1005.56
2019-03-08T06:57:47.086Z,1005.65
2019-03-08T06:58:47.094Z,1005.67
2019-03-08T06:59:47.048Z,1005.72
2019-03-08T07:00:47.058Z,1005.66
2019-03-08T07:01:47.023Z,1005.71
2019-03-08T07:02:46.978Z,1005.73
2019-03-08T07:03:46.963Z,1005.73
2019-03-08T07:04:46.950Z,1005.82
2019-03-08T07:05:46.917Z,1005.77
2019-03-08T07:06:46.892Z,1005.84
2019-03-08T07:07:46.875Z,1005.8
2019-03-08T07:08:46.854Z,1005.87
2019-03-08T07:09:46.833Z,1005.85
2019-03-08T07:10:46.857Z,1005.81
2019-03-08T07:11:46.785Z,1005.93
2019-03-08T07:12:46.768Z,1006.03
2019-03-08T07:13:46.745Z,1005.98
2019-03-08T07:14:46.722Z,1006.02
2019-03-08T07:15:46.697Z,1006.06
2019-03-08T07:16:46.795Z,1006.09
2019-03-08T07:17:46.659Z,1006.14
2019-03-08T07:18:46.638Z,1006.13
2019-03-08T07:19:46.611Z,1006.19
2019-03-08T07:20:46.595Z,1006.21
2019-03-08T07:21:46.570Z,1006.29
2019-03-08T07:22:46.651Z,1006.23
2019-03-08T07:23:46.526Z,1006.27
2019-03-08T07:24:46.503Z,1006.26
2019-03-08T07:25:51.336Z,1006.3
2019-03-08T07:26:46.501Z,1006.33
2019-03-08T07:27:46.443Z,1006.42
2019-03-08T07:28:46.418Z,1006.41
2019-03-08T07:29:46.398Z,1006.48
2019-03-08T07:30:46.379Z,1006.56
2019-03-08T07:31:46.356Z,1006.58
2019-03-08T07:32:46.332Z,1006.51
2019-03-08T07:33:52.844Z,1006.57
2019-03-08T07:34:46.288Z,1006.61
2019-03-08T07:35:46.275Z,1006.56
2019-03-08T07:36:46.256Z,1006.63
2019-03-08T07:37:46.367Z,1006.7
2019-03-08T07:38:46.202Z,1006.77
2019-03-08T07:39:46.331Z,1006.8
2019-03-08T07:40:46.288Z,1006.95
2019-03-08T07:41:46.139Z,1006.88
2019-03-08T07:42:46.115Z,1006.91
2019-03-08T07:43:46.093Z,1007
2019-03-08T07:44:46.076Z,1006.99
2019-03-08T07:45:46.056Z,1007.01
2019-03-08T07:46:46.031Z,1007.02
2019-03-08T07:47:46.011Z,1007.01
2019-03-08T07:48:45.990Z,1007.11
2019-03-08T07:49:46.059Z,1007.09
2019-03-08T07:50:46.920Z,1007.15
2019-03-08T07:51:45.920Z,1007.17
2019-03-08T07:52:45.933Z,1007.12
2019-03-08T07:53:45.877Z,1007.18
2019-03-08T07:54:52.602Z,1007.16
2019-03-08T07:55:46.476Z,1007.15
2019-03-08T07:56:45.929Z,1007.23
2019-03-08T07:57:45.820Z,1007.27
2019-03-08T07:58:45.786Z,1007.23
2019-03-08T07:59:53.302Z,1007.26
2019-03-08T08:00:45.725Z,1007.26
2019-03-08T08:01:45.713Z,1007.29
2019-03-08T08:02:45.686Z,1007.33
2019-03-08T08:03:45.683Z,1007.35
2019-03-08T08:04:45.639Z,1007.39
2019-03-08T08:05:45.617Z,1007.4
2019-03-08T08:06:45.597Z,1007.45
2019-03-08T08:07:45.578Z,1007.44
2019-03-08T08:08:51.511Z,1007.49
2019-03-08T08:09:45.544Z,1007.51
2019-03-08T08:10:45.569Z,1007.47
2019-03-08T08:11:45.492Z,1007.53
2019-03-08T08:12:45.470Z,1007.51
2019-03-08T08:13:45.449Z,1007.55
2019-03-08T08:14:45.423Z,1007.61
2019-03-08T08:15:45.545Z,1007.66
2019-03-08T08:16:45.384Z,1007.77
2019-03-08T08:17:45.366Z,1007.61
2019-03-08T08:18:45.336Z,1007.57
2019-03-08T08:19:45.315Z,1007.58
2019-03-08T08:20:45.299Z,1007.6
2019-03-08T08:21:45.276Z,1007.68
2019-03-08T08:22:45.254Z,1007.73
2019-03-08T08:23:45.230Z,1007.73
2019-03-08T08:24:45.211Z,1007.77
2019-03-08T08:25:45.187Z,1007.81
2019-03-08T08:26:45.168Z,1007.84
2019-03-08T08:27:45.146Z,1007.84
2019-03-08T08:28:49.795Z,1007.87
2019-03-08T08:29:45.108Z,1007.92
2019-03-08T08:30:45.116Z,1007.96
2019-03-08T08:31:45.056Z,1007.99
2019-03-08T08:32:45.039Z,1008.06
2019-03-08T08:33:45.017Z,1007.99
2019-03-08T08:34:44.995Z,1008.04
2019-03-08T08:35:45.003Z,1008.04
2019-03-08T08:36:44.952Z,1008.09
2019-03-08T08:37:44.931Z,1008.14
2019-03-08T08:38:44.925Z,1008.08
2019-03-08T08:39:44.884Z,1008.1
2019-03-08T08:40:44.866Z,1008.14
2019-03-08T08:41:44.840Z,1008.15
2019-03-08T08:42:44.823Z,1008.3
2019-03-08T08:43:44.798Z,1008.2
2019-03-08T08:44:44.774Z,1008.2
2019-03-08T08:45:44.795Z,1008.23
2019-03-08T08:46:44.738Z,1008.26
2019-03-08T08:47:44.719Z,1008.26
2019-03-08T08:48:44.783Z,1008.23
2019-03-08T08:49:53.954Z,1008.26
2019-03-08T08:50:44.651Z,1008.39
2019-03-08T08:51:44.633Z,1008.4
2019-03-08T08:52:44.602Z,1008.38
2019-03-08T08:53:44.692Z,1008.35
2019-03-08T08:54:44.562Z,1008.4
2019-03-08T08:55:44.544Z,1008.38
2019-03-08T08:56:44.569Z,1008.42
2019-03-08T08:57:44.500Z,1008.43
2019-03-08T08:58:44.475Z,1008.47
2019-03-08T08:59:44.457Z,1008.46
2019-03-08T09:00:44.436Z,1008.4
2019-03-08T09:01:44.414Z,1008.44
2019-03-08T09:02:44.387Z,1008.51
2019-03-08T09:03:44.368Z,1008.48
2019-03-08T09:04:44.364Z,1008.55
2019-03-08T09:05:44.351Z,1008.57
2019-03-08T09:06:44.302Z,1008.64
2019-03-08T09:07:44.281Z,1008.62
2019-03-08T09:08:44.264Z,1008.63
2019-03-08T09:09:44.242Z,1008.61
2019-03-08T09:10:44.281Z,1008.71
2019-03-08T09:11:51.822Z,1008.75
2019-03-08T09:12:44.179Z,1008.64
2019-03-08T09:13:44.152Z,1008.71
2019-03-08T09:14:44.134Z,1008.7
2019-03-08T09:15:44.109Z,1008.74
2019-03-08T09:16:44.098Z,1008.8
2019-03-08T09:17:44.065Z,1008.89
2019-03-08T09:18:44.049Z,1008.86
2019-03-08T09:19:44.027Z,1008.84
2019-03-08T09:20:44.080Z,1008.8
2019-03-08T09:21:44.002Z,1008.89
2019-03-08T09:22:43.962Z,1008.8
2019-03-08T09:23:43.941Z,1008.84
2019-03-08T09:24:43.915Z,1008.81
2019-03-08T09:25:43.901Z,1008.79
2019-03-08T09:26:43.875Z,1008.87
2019-03-08T09:27:43.858Z,1008.83
2019-03-08T09:28:43.869Z,1008.81
2019-03-08T09:29:43.816Z,1008.87
2019-03-08T09:30:43.787Z,1008.95
2019-03-08T09:31:43.769Z,1008.98
2019-03-08T09:32:43.854Z,1008.95
2019-03-08T09:33:43.859Z,1008.96
2019-03-08T09:34:43.710Z,1009
2019-03-08T09:35:43.837Z,1009.01
2019-03-08T09:36:43.667Z,1009.03
2019-03-08T09:37:43.661Z,1009.08
2019-03-08T09:38:43.616Z,1009.07
2019-03-08T09:39:43.597Z,1009.22
2019-03-08T09:40:43.583Z,1009.24
2019-03-08T09:41:43.556Z,1009.16
2019-03-08T09:42:43.537Z,1009.14
2019-03-08T09:43:43.549Z,1009.13
2019-03-08T09:44:43.495Z,1009.16
2019-03-08T09:45:43.465Z,1009.21
2019-03-08T09:46:43.448Z,1009.18
2019-03-08T09:47:43.450Z,1009.22
2019-03-08T09:48:48.428Z,1009.28
2019-03-08T09:49:43.379Z,1009.27
2019-03-08T09:50:43.361Z,1009.29
2019-03-08T09:51:43.341Z,1009.29
2019-03-08T09:52:43.316Z,1009.3
2019-03-08T09:53:43.294Z,1009.32
2019-03-08T09:54:43.313Z,1009.33
2019-03-08T09:55:43.260Z,1009.35
2019-03-08T09:56:43.229Z,1009.46
2019-03-08T09:57:43.247Z,1009.47
2019-03-08T09:58:43.187Z,1009.53
2019-03-08T09:59:43.169Z,1009.5
2019-03-08T10:00:43.143Z,1009.51
2019-03-08T10:01:43.127Z,1009.49
2019-03-08T10:02:43.102Z,1009.47
2019-03-08T10:03:46.253Z,1009.41
2019-03-08T10:04:43.063Z,1009.39
2019-03-08T10:05:43.079Z,1009.47
2019-03-08T10:06:43.040Z,1009.43
2019-03-08T10:07:43.071Z,1009.41
2019-03-08T10:08:42.977Z,1009.43
2019-03-08T10:09:42.956Z,1009.47
2019-03-08T10:10:42.931Z,1009.48
2019-03-08T10:11:42.915Z,1009.47
2019-03-08T10:12:42.917Z,1009.5
2019-03-08T10:13:42.871Z,1009.51
2019-03-08T10:14:42.850Z,1009.56
2019-03-08T10:15:42.825Z,1009.51
2019-03-08T10:16:42.818Z,1009.51
2019-03-08T10:17:42.780Z,1009.54
2019-03-08T10:18:42.819Z,1009.56
2019-03-08T10:19:42.841Z,1009.62
2019-03-08T10:20:42.734Z,1009.67
2019-03-08T10:21:42.814Z,1009.64
2019-03-08T10:22:42.687Z,1009.62
2019-03-08T10:23:42.656Z,1009.69
2019-03-08T10:24:42.631Z,1009.66
2019-03-08T10:25:42.625Z,1009.7
2019-03-08T10:26:42.591Z,1009.69
2019-03-08T10:27:42.630Z,1009.78
2019-03-08T10:28:42.545Z,1009.74
2019-03-08T10:29:42.524Z,1009.74
2019-03-08T10:30:42.503Z,1009.78
2019-03-08T10:31:42.486Z,1009.85
2019-03-08T10:32:42.482Z,1009.9
2019-03-08T10:33:46.376Z,1009.9
2019-03-08T10:34:42.419Z,1009.9
2019-03-08T10:35:42.400Z,1009.94
2019-03-08T10:36:42.379Z,1009.98
2019-03-08T10:37:42.358Z,1010.03
2019-03-08T10:38:42.331Z,1010.06
2019-03-08T10:39:42.311Z,1010.08
2019-03-08T10:40:42.294Z,1010.06
2019-03-08T10:41:42.272Z,1010.1
2019-03-08T10:42:42.367Z,1010.06
2019-03-08T10:43:42.226Z,1010.12
2019-03-08T10:44:42.207Z,1010.15
2019-03-08T10:45:42.190Z,1010.1
2019-03-08T10:46:42.165Z,1010.1
2019-03-08T10:47:42.140Z,1010.18
2019-03-08T10:48:42.122Z,1010.11
2019-03-08T10:49:42.157Z,1010.19
2019-03-08T10:50:42.081Z,1010.14
2019-03-08T10:51:42.054Z,1010.21
2019-03-08T10:52:42.125Z,1010.22
2019-03-08T10:53:42.037Z,1010.26
2019-03-08T10:54:41.999Z,1010.29
2019-03-08T10:55:42.048Z,1010.32
2019-03-08T10:56:41.966Z,1010.32
2019-03-08T10:57:41.959Z,1010.32
2019-03-08T10:58:41.911Z,1010.33
2019-03-08T10:59:41.887Z,1010.43
2019-03-08T11:00:41.884Z,1010.4
2019-03-08T11:01:41.842Z,1010.39
2019-03-08T11:02:41.822Z,1010.48
2019-03-08T11:03:41.803Z,1010.43
2019-03-08T11:04:41.778Z,1010.49
2019-03-08T11:05:41.764Z,1010.42
2019-03-08T11:06:41.734Z,1010.45
2019-03-08T11:07:41.717Z,1010.48
2019-03-08T11:08:41.696Z,1010.47
2019-03-08T11:09:41.676Z,1010.47
2019-03-08T11:10:41.651Z,1010.52
2019-03-08T11:11:41.628Z,1010.53
2019-03-08T11:12:41.611Z,1010.55
2019-03-08T11:13:43.352Z,1010.53
2019-03-08T11:14:41.567Z,1010.56
2019-03-08T11:15:41.543Z,1010.57
2019-03-08T11:16:43.369Z,1010.67
2019-03-08T11:17:50.288Z,1010.59
2019-03-08T11:18:41.482Z,1010.69
2019-03-08T11:19:41.461Z,1010.62
2019-03-08T11:20:41.441Z,1010.63
2019-03-08T11:21:41.415Z,1010.65
2019-03-08T11:22:41.398Z,1010.67
2019-03-08T11:23:41.373Z,1010.72
2019-03-08T11:24:41.353Z,1010.68
2019-03-08T11:25:41.331Z,1010.74
2019-03-08T11:26:41.313Z,1010.71
2019-03-08T11:27:41.292Z,1010.73
2019-03-08T11:28:41.267Z,1010.69
2019-03-08T11:29:41.245Z,1010.73
2019-03-08T11:30:41.236Z,1010.75
2019-03-08T11:31:41.207Z,1010.72
2019-03-08T11:32:41.180Z,1010.73
2019-03-08T11:33:41.160Z,1010.77
2019-03-08T11:34:41.138Z,1010.75
2019-03-08T11:35:41.122Z,1010.8
2019-03-08T11:36:41.120Z,1010.72
2019-03-08T11:37:41.080Z,1010.75
2019-03-08T11:38:41.065Z,1010.76
2019-03-08T11:39:41.036Z,1010.84
2019-03-08T11:40:41.016Z,1010.82
2019-03-08T11:41:40.999Z,1010.72
2019-03-08T11:42:41.013Z,1010.71
2019-03-08T11:43:40.987Z,1010.73
2019-03-08T11:44:40.930Z,1010.78
2019-03-08T11:45:40.929Z,1010.78
2019-03-08T11:46:40.884Z,1010.81
2019-03-08T11:47:40.871Z,1010.81
2019-03-08T11:48:40.845Z,1010.89
2019-03-08T11:49:42.473Z,1010.89
2019-03-08T11:50:40.802Z,1010.86
2019-03-08T11:51:40.788Z,1011.11
2019-03-08T11:52:40.762Z,1010.86
2019-03-08T11:53:40.739Z,1011.01
2019-03-08T11:54:41.197Z,1011
2019-03-08T11:55:40.909Z,1010.98
2019-03-08T11:56:40.675Z,1011.01
2019-03-08T11:57:40.652Z,1011.02
2019-03-08T11:58:40.626Z,1011
2019-03-08T11:59:40.711Z,1011.01
2019-03-08T12:00:40.591Z,1010.99
2019-03-08T12:01:40.600Z,1011.03
2019-03-08T12:02:40.643Z,1010.93
2019-03-08T12:03:40.643Z,1010.92
2019-03-08T12:04:40.816Z,1010.94
2019-03-08T12:05:40.485Z,1010.91
2019-03-08T12:06:40.472Z,1010.92
2019-03-08T12:07:40.439Z,1010.9
2019-03-08T12:08:40.420Z,1010.9
2019-03-08T12:09:40.403Z,1010.92
2019-03-08T12:10:40.379Z,1010.88
2019-03-08T12:11:40.354Z,1010.85
2019-03-08T12:12:40.331Z,1010.93
2019-03-08T12:13:40.311Z,1010.92